KASL/ASL METAR and TAF weather

Enter ICAO airport designator
Station Type Date Time Source
KASL METAR 2021/05/12 01:35 UTC NOAA

KASL 120135Z AUTO 13004KT 10SM OVC005 14/13 A2998 RMK AO1 T01390130


Station Type Date Time Source
KASL Decoded METAR 2021/05/12 01:35 UTC NOAA

Station name not available
May 11, 2021 - 09:35 PM EDT / 2021.05.12 0135 UTC
Wind: from the SE (130 degrees) at 5 MPH (4 KT):0
Visibility: 10 mile(s):0
Sky conditions: overcast
Temperature: 57.0 F (13.9 C)
Dew Point: 55.4 F (13.0 C)
Relative Humidity: 94%
Pressure (altimeter): 29.98 in. Hg (1015 hPa)
ob: KASL 120135Z AUTO 13004KT 10SM OVC005 14/13 A2998 RMK AO1 T01390130
cycle: 1

Station Type Date Time Source
KASL TAF UTC NOAA

Error!

Example: see airport list